sensor_id;sensor_type;location;lat;lon;timestamp;temperature;humidity
21857;DHT22;11093;50.862;4.328;2022-07-10T00:00:13;16.30;99.90
21857;DHT22;11093;50.862;4.328;2022-07-10T00:02:40;16.40;99.90
21857;DHT22;11093;50.862;4.328;2022-07-10T00:05:07;16.30;99.90
21857;DHT22;11093;50.862;4.328;2022-07-10T00:07:33;16.30;99.90
21857;DHT22;11093;50.862;4.328;2022-07-10T00:09:59;16.30;99.90
21857;DHT22;11093;50.862;4.328;2022-07-10T00:12:24;16.20;99.90
21857;DHT22;11093;50.862;4.328;2022-07-10T00:14:51;16.10;99.90
21857;DHT22;11093;50.862;4.328;2022-07-10T00:17:17;16.10;99.90
21857;DHT22;11093;50.862;4.328;2022-07-10T00:19:43;16.20;99.90
21857;DHT22;11093;50.862;4.328;2022-07-10T00:22:08;16.10;99.90
21857;DHT22;11093;50.862;4.328;2022-07-10T00:24:34;16.10;99.90
21857;DHT22;11093;50.862;4.328;2022-07-10T00:27:00;16.10;99.90
21857;DHT22;11093;50.862;4.328;2022-07-10T00:29:26;16.10;99.90
21857;DHT22;11093;50.862;4.328;2022-07-10T00:31:52;16.10;99.90
21857;DHT22;11093;50.862;4.328;2022-07-10T00:34:17;16.10;99.90
21857;DHT22;11093;50.862;4.328;2022-07-10T00:36:43;15.90;99.90
21857;DHT22;11093;50.862;4.328;2022-07-10T00:39:09;16.10;99.90
21857;DHT22;11093;50.862;4.328;2022-07-10T00:41:35;16.30;99.90
21857;DHT22;11093;50.862;4.328;2022-07-10T00:44:02;16.10;99.90
21857;DHT22;11093;50.862;4.328;2022-07-10T00:46:29;16.10;99.90
21857;DHT22;11093;50.862;4.328;2022-07-10T00:48:56;16.10;99.90
21857;DHT22;11093;50.862;4.328;2022-07-10T00:51:24;16.10;99.90
21857;DHT22;11093;50.862;4.328;2022-07-10T00:53:51;16.20;99.90
21857;DHT22;11093;50.862;4.328;2022-07-10T00:56:19;16.10;99.90
21857;DHT22;11093;50.862;4.328;2022-07-10T00:58:47;16.10;99.90
21857;DHT22;11093;50.862;4.328;2022-07-10T01:01:13;16.10;99.90
21857;DHT22;11093;50.862;4.328;2022-07-10T01:03:39;16.10;99.90
21857;DHT22;11093;50.862;4.328;2022-07-10T01:06:05;16.10;99.90
21857;DHT22;11093;50.862;4.328;2022-07-10T01:08:32;16.00;99.90
21857;DHT22;11093;50.862;4.328;2022-07-10T01:10:58;15.90;99.90
21857;DHT22;11093;50.862;4.328;2022-07-10T01:13:24;16.00;99.90
21857;DHT22;11093;50.862;4.328;2022-07-10T01:15:51;15.90;99.90
21857;DHT22;11093;50.862;4.328;2022-07-10T01:18:18;15.80;99.90
21857;DHT22;11093;50.862;4.328;2022-07-10T01:20:43;15.90;99.90
21857;DHT22;11093;50.862;4.328;2022-07-10T01:23:09;15.90;99.90
21857;DHT22;11093;50.862;4.328;2022-07-10T01:25:35;15.70;99.90
21857;DHT22;11093;50.862;4.328;2022-07-10T01:28:00;15.70;99.90
21857;DHT22;11093;50.862;4.328;2022-07-10T01:30:26;15.80;99.90
21857;DHT22;11093;50.862;4.328;2022-07-10T01:32:52;15.80;99.90
21857;DHT22;11093;50.862;4.328;2022-07-10T01:35:18;15.80;99.90
21857;DHT22;11093;50.862;4.328;2022-07-10T01:37:44;15.80;99.90
21857;DHT22;11093;50.862;4.328;2022-07-10T01:40:10;15.80;99.90
21857;DHT22;11093;50.862;4.328;2022-07-10T01:42:36;15.70;99.90
21857;DHT22;11093;50.862;4.328;2022-07-10T01:45:04;15.70;99.90
21857;DHT22;11093;50.862;4.328;2022-07-10T01:47:30;15.60;99.90
21857;DHT22;11093;50.862;4.328;2022-07-10T01:49:55;15.60;99.90
21857;DHT22;11093;50.862;4.328;2022-07-10T01:52:21;15.60;99.90
21857;DHT22;11093;50.862;4.328;2022-07-10T01:54:48;15.70;99.90
21857;DHT22;11093;50.862;4.328;2022-07-10T01:57:14;15.70;99.90
21857;DHT22;11093;50.862;4.328;2022-07-10T01:59:40;15.60;99.90
21857;DHT22;11093;50.862;4.328;2022-07-10T02:02:07;15.60;99.90
21857;DHT22;11093;50.862;4.328;2022-07-10T02:04:32;15.60;99.90
21857;DHT22;11093;50.862;4.328;2022-07-10T02:07:15;15.70;99.90
21857;DHT22;11093;50.862;4.328;2022-07-10T02:09:41;15.70;99.90
21857;DHT22;11093;50.862;4.328;2022-07-10T02:12:09;15.70;99.90
21857;DHT22;11093;50.862;4.328;2022-07-10T02:14:35;15.60;99.90
21857;DHT22;11093;50.862;4.328;2022-07-10T02:17:01;15.60;99.90
21857;DHT22;11093;50.862;4.328;2022-07-10T02:19:26;15.70;99.90
21857;DHT22;11093;50.862;4.328;2022-07-10T02:21:52;15.60;99.90
21857;DHT22;11093;50.862;4.328;2022-07-10T02:24:18;15.60;99.90
21857;DHT22;11093;50.862;4.328;2022-07-10T02:26:44;15.50;99.90
21857;DHT22;11093;50.862;4.328;2022-07-10T02:29:10;15.30;99.90
21857;DHT22;11093;50.862;4.328;2022-07-10T02:31:35;15.20;99.90
21857;DHT22;11093;50.862;4.328;2022-07-10T02:34:12;15.20;99.90
21857;DHT22;11093;50.862;4.328;2022-07-10T02:36:38;15.00;99.90
21857;DHT22;11093;50.862;4.328;2022-07-10T02:39:06;15.10;99.90
21857;DHT22;11093;50.862;4.328;2022-07-10T02:41:32;15.10;99.90
21857;DHT22;11093;50.862;4.328;2022-07-10T02:43:58;15.10;99.90
21857;DHT22;11093;50.862;4.328;2022-07-10T02:46:24;15.10;99.90
21857;DHT22;11093;50.862;4.328;2022-07-10T02:48:50;15.00;99.90
21857;DHT22;11093;50.862;4.328;2022-07-10T02:51:16;14.90;99.90
21857;DHT22;11093;50.862;4.328;2022-07-10T02:53:42;14.80;99.90
21857;DHT22;11093;50.862;4.328;2022-07-10T02:56:08;14.70;99.90
21857;DHT22;11093;50.862;4.328;2022-07-10T02:58:33;14.80;99.90
21857;DHT22;11093;50.862;4.328;2022-07-10T03:00:59;14.70;99.90
21857;DHT22;11093;50.862;4.328;2022-07-10T03:03:25;14.50;99.90
21857;DHT22;11093;50.862;4.328;2022-07-10T03:05:51;14.70;99.90
21857;DHT22;11093;50.862;4.328;2022-07-10T03:08:17;14.70;99.90
21857;DHT22;11093;50.862;4.328;2022-07-10T03:10:42;14.80;99.90
21857;DHT22;11093;50.862;4.328;2022-07-10T03:13:08;14.80;99.90
21857;DHT22;11093;50.862;4.328;2022-07-10T03:15:34;14.90;99.90
21857;DHT22;11093;50.862;4.328;2022-07-10T03:18:00;15.10;99.90
21857;DHT22;11093;50.862;4.328;2022-07-10T03:20:25;15.10;99.90
21857;DHT22;11093;50.862;4.328;2022-07-10T03:22:51;15.10;99.90
21857;DHT22;11093;50.862;4.328;2022-07-10T03:25:17;15.20;99.90
21857;DHT22;11093;50.862;4.328;2022-07-10T03:27:43;15.20;99.90
21857;DHT22;11093;50.862;4.328;2022-07-10T03:30:09;14.90;99.90
21857;DHT22;11093;50.862;4.328;2022-07-10T03:32:35;14.60;99.90
21857;DHT22;11093;50.862;4.328;2022-07-10T03:35:01;14.50;99.90
21857;DHT22;11093;50.862;4.328;2022-07-10T03:37:26;14.40;99.90
21857;DHT22;11093;50.862;4.328;2022-07-10T03:39:52;14.50;99.90
21857;DHT22;11093;50.862;4.328;2022-07-10T03:42:18;14.50;99.90
21857;DHT22;11093;50.862;4.328;2022-07-10T03:44:44;14.50;99.90
21857;DHT22;11093;50.862;4.328;2022-07-10T03:47:10;14.60;99.90
21857;DHT22;11093;50.862;4.328;2022-07-10T03:49:36;14.80;99.90
21857;DHT22;11093;50.862;4.328;2022-07-10T03:52:04;14.80;99.90
21857;DHT22;11093;50.862;4.328;2022-07-10T03:54:30;14.80;99.90
21857;DHT22;11093;50.862;4.328;2022-07-10T03:56:57;14.80;99.90
21857;DHT22;11093;50.862;4.328;2022-07-10T03:59:41;14.70;99.90
21857;DHT22;11093;50.862;4.328;2022-07-10T04:02:07;14.60;99.90
21857;DHT22;11093;50.862;4.328;2022-07-10T04:04:33;14.50;99.90
21857;DHT22;11093;50.862;4.328;2022-07-10T04:06:59;14.50;99.90
21857;DHT22;11093;50.862;4.328;2022-07-10T04:09:25;14.40;99.90
21857;DHT22;11093;50.862;4.328;2022-07-10T04:11:50;14.40;99.90
21857;DHT22;11093;50.862;4.328;2022-07-10T04:14:16;14.60;99.90
21857;DHT22;11093;50.862;4.328;2022-07-10T04:16:42;14.90;99.90
21857;DHT22;11093;50.862;4.328;2022-07-10T04:19:08;14.90;99.90
21857;DHT22;11093;50.862;4.328;2022-07-10T04:21:34;14.80;99.90
21857;DHT22;11093;50.862;4.328;2022-07-10T04:24:00;14.80;99.90
21857;DHT22;11093;50.862;4.328;2022-07-10T04:26:25;14.80;99.90
21857;DHT22;11093;50.862;4.328;2022-07-10T04:28:51;15.20;99.90
21857;DHT22;11093;50.862;4.328;2022-07-10T04:31:17;15.60;99.90
21857;DHT22;11093;50.862;4.328;2022-07-10T04:33:42;16.00;99.90
21857;DHT22;11093;50.862;4.328;2022-07-10T04:36:08;16.30;99.90
21857;DHT22;11093;50.862;4.328;2022-07-10T04:38:34;16.50;99.90
21857;DHT22;11093;50.862;4.328;2022-07-10T04:41:00;16.90;99.90
21857;DHT22;11093;50.862;4.328;2022-07-10T04:43:26;17.30;99.90
21857;DHT22;11093;50.862;4.328;2022-07-10T04:45:52;17.60;99.90
21857;DHT22;11093;50.862;4.328;2022-07-10T04:48:17;18.10;99.90
21857;DHT22;11093;50.862;4.328;2022-07-10T04:50:43;18.80;99.90
21857;DHT22;11093;50.862;4.328;2022-07-10T04:53:09;19.30;99.90
21857;DHT22;11093;50.862;4.328;2022-07-10T04:55:34;19.60;99.90
21857;DHT22;11093;50.862;4.328;2022-07-10T04:58:00;20.10;99.90
21857;DHT22;11093;50.862;4.328;2022-07-10T05:00:26;20.50;99.90
21857;DHT22;11093;50.862;4.328;2022-07-10T05:02:52;20.90;99.90
21857;DHT22;11093;50.862;4.328;2022-07-10T05:05:17;21.20;99.90
21857;DHT22;11093;50.862;4.328;2022-07-10T05:07:43;21.60;99.90
21857;DHT22;11093;50.862;4.328;2022-07-10T05:10:09;21.90;99.90
21857;DHT22;11093;50.862;4.328;2022-07-10T05:12:35;22.10;99.90
21857;DHT22;11093;50.862;4.328;2022-07-10T05:15:01;22.40;99.90
21857;DHT22;11093;50.862;4.328;2022-07-10T05:17:27;22.40;99.90
21857;DHT22;11093;50.862;4.328;2022-07-10T05:19:57;22.80;99.90
21857;DHT22;11093;50.862;4.328;2022-07-10T05:22:24;23.20;99.90
21857;DHT22;11093;50.862;4.328;2022-07-10T05:24:50;22.70;99.90
21857;DHT22;11093;50.862;4.328;2022-07-10T05:27:15;23.20;99.90
21857;DHT22;11093;50.862;4.328;2022-07-10T05:29:46;23.10;99.90
21857;DHT22;11093;50.862;4.328;2022-07-10T05:32:11;22.90;99.90
21857;DHT22;11093;50.862;4.328;2022-07-10T05:34:37;23.40;99.90
21857;DHT22;11093;50.862;4.328;2022-07-10T05:37:03;24.30;99.90
21857;DHT22;11093;50.862;4.328;2022-07-10T05:39:28;24.20;99.90
21857;DHT22;11093;50.862;4.328;2022-07-10T05:41:54;24.40;99.90
21857;DHT22;11093;50.862;4.328;2022-07-10T05:44:21;24.60;99.90
21857;DHT22;11093;50.862;4.328;2022-07-10T05:46:49;25.10;99.90
21857;DHT22;11093;50.862;4.328;2022-07-10T05:49:14;25.90;99.90
21857;DHT22;11093;50.862;4.328;2022-07-10T05:51:43;26.10;99.90
21857;DHT22;11093;50.862;4.328;2022-07-10T05:54:09;26.30;99.90
21857;DHT22;11093;50.862;4.328;2022-07-10T05:56:35;25.50;99.90
21857;DHT22;11093;50.862;4.328;2022-07-10T05:59:03;24.90;99.90
21857;DHT22;11093;50.862;4.328;2022-07-10T06:01:29;24.90;99.90
21857;DHT22;11093;50.862;4.328;2022-07-10T06:03:55;23.90;99.90
21857;DHT22;11093;50.862;4.328;2022-07-10T06:06:20;23.30;99.90
21857;DHT22;11093;50.862;4.328;2022-07-10T06:08:46;22.80;99.90
21857;DHT22;11093;50.862;4.328;2022-07-10T06:11:12;22.00;99.90
21857;DHT22;11093;50.862;4.328;2022-07-10T06:13:38;21.80;99.90
21857;DHT22;11093;50.862;4.328;2022-07-10T06:16:04;21.40;99.90
21857;DHT22;11093;50.862;4.328;2022-07-10T06:18:31;20.90;99.90
21857;DHT22;11093;50.862;4.328;2022-07-10T06:20:56;20.80;99.90
21857;DHT22;11093;50.862;4.328;2022-07-10T06:23:22;20.50;99.90
21857;DHT22;11093;50.862;4.328;2022-07-10T06:25:48;20.30;99.90
21857;DHT22;11093;50.862;4.328;2022-07-10T06:28:17;19.90;99.90
21857;DHT22;11093;50.862;4.328;2022-07-10T06:30:43;19.90;99.90
21857;DHT22;11093;50.862;4.328;2022-07-10T06:33:08;20.10;99.90
21857;DHT22;11093;50.862;4.328;2022-07-10T06:35:34;20.10;99.90
21857;DHT22;11093;50.862;4.328;2022-07-10T06:38:01;20.30;99.90
21857;DHT22;11093;50.862;4.328;2022-07-10T06:40:27;20.30;99.90
21857;DHT22;11093;50.862;4.328;2022-07-10T06:42:54;20.10;99.90
21857;DHT22;11093;50.862;4.328;2022-07-10T06:45:19;19.90;99.90
21857;DHT22;11093;50.862;4.328;2022-07-10T06:47:45;19.60;99.90
21857;DHT22;11093;50.862;4.328;2022-07-10T06:50:30;19.40;99.90
21857;DHT22;11093;50.862;4.328;2022-07-10T06:52:57;19.40;99.90
21857;DHT22;11093;50.862;4.328;2022-07-10T06:55:23;19.30;99.90
21857;DHT22;11093;50.862;4.328;2022-07-10T06:57:49;19.10;99.90
21857;DHT22;11093;50.862;4.328;2022-07-10T07:00:15;19.10;99.90
21857;DHT22;11093;50.862;4.328;2022-07-10T07:02:41;19.20;99.90
21857;DHT22;11093;50.862;4.328;2022-07-10T07:05:07;19.20;99.90
21857;DHT22;11093;50.862;4.328;2022-07-10T07:07:33;19.60;99.90
21857;DHT22;11093;50.862;4.328;2022-07-10T07:09:59;19.70;99.90
21857;DHT22;11093;50.862;4.328;2022-07-10T07:12:25;19.80;99.90
21857;DHT22;11093;50.862;4.328;2022-07-10T07:14:50;19.70;99.90
21857;DHT22;11093;50.862;4.328;2022-07-10T07:17:16;19.50;99.90
21857;DHT22;11093;50.862;4.328;2022-07-10T07:19:50;19.60;99.90
21857;DHT22;11093;50.862;4.328;2022-07-10T07:22:34;19.70;99.90
21857;DHT22;11093;50.862;4.328;2022-07-10T07:25:18;19.90;99.90
21857;DHT22;11093;50.862;4.328;2022-07-10T07:27:44;20.20;99.90
21857;DHT22;11093;50.862;4.328;2022-07-10T07:30:14;20.40;99.90
21857;DHT22;11093;50.862;4.328;2022-07-10T07:32:41;20.90;99.90
21857;DHT22;11093;50.862;4.328;2022-07-10T07:35:08;21.00;99.90
21857;DHT22;11093;50.862;4.328;2022-07-10T07:37:49;21.00;99.90
21857;DHT22;11093;50.862;4.328;2022-07-10T07:40:21;21.20;99.90
21857;DHT22;11093;50.862;4.328;2022-07-10T07:42:58;21.20;99.90
21857;DHT22;11093;50.862;4.328;2022-07-10T07:45:24;21.20;99.90
21857;DHT22;11093;50.862;4.328;2022-07-10T07:47:51;21.30;99.90
21857;DHT22;11093;50.862;4.328;2022-07-10T07:50:21;21.60;99.90
21857;DHT22;11093;50.862;4.328;2022-07-10T07:52:47;22.00;99.90
21857;DHT22;11093;50.862;4.328;2022-07-10T07:55:14;22.80;99.90
21857;DHT22;11093;50.862;4.328;2022-07-10T07:57:41;23.40;99.90
21857;DHT22;11093;50.862;4.328;2022-07-10T08:00:07;23.50;99.90
21857;DHT22;11093;50.862;4.328;2022-07-10T08:02:34;23.50;99.90
21857;DHT22;11093;50.862;4.328;2022-07-10T08:05:01;23.80;99.90
21857;DHT22;11093;50.862;4.328;2022-07-10T08:07:37;23.90;99.90
21857;DHT22;11093;50.862;4.328;2022-07-10T08:10:08;23.90;99.90
21857;DHT22;11093;50.862;4.328;2022-07-10T08:12:34;24.30;99.90
21857;DHT22;11093;50.862;4.328;2022-07-10T08:14:59;23.80;99.90
21857;DHT22;11093;50.862;4.328;2022-07-10T08:17:26;23.90;99.90
21857;DHT22;11093;50.862;4.328;2022-07-10T08:19:52;24.60;99.90
21857;DHT22;11093;50.862;4.328;2022-07-10T08:22:17;25.60;99.90
21857;DHT22;11093;50.862;4.328;2022-07-10T08:24:43;26.70;99.90
21857;DHT22;11093;50.862;4.328;2022-07-10T08:27:09;26.30;99.90
21857;DHT22;11093;50.862;4.328;2022-07-10T08:29:35;25.80;99.90
21857;DHT22;11093;50.862;4.328;2022-07-10T08:32:03;25.30;99.90
21857;DHT22;11093;50.862;4.328;2022-07-10T08:34:29;23.80;99.90
21857;DHT22;11093;50.862;4.328;2022-07-10T08:36:55;24.00;99.90
21857;DHT22;11093;50.862;4.328;2022-07-10T08:39:20;23.90;99.90
21857;DHT22;11093;50.862;4.328;2022-07-10T08:41:47;23.80;99.90
21857;DHT22;11093;50.862;4.328;2022-07-10T08:44:16;23.80;99.90
21857;DHT22;11093;50.862;4.328;2022-07-10T08:46:43;24.30;99.90
21857;DHT22;11093;50.862;4.328;2022-07-10T08:49:09;24.60;99.90
21857;DHT22;11093;50.862;4.328;2022-07-10T08:51:44;25.10;99.90
21857;DHT22;11093;50.862;4.328;2022-07-10T08:54:13;24.20;99.90
21857;DHT22;11093;50.862;4.328;2022-07-10T08:56:41;24.20;99.90
21857;DHT22;11093;50.862;4.328;2022-07-10T08:59:07;25.10;99.90
21857;DHT22;11093;50.862;4.328;2022-07-10T09:01:33;25.80;99.90
21857;DHT22;11093;50.862;4.328;2022-07-10T09:03:59;25.70;99.90
21857;DHT22;11093;50.862;4.328;2022-07-10T09:06:27;26.00;99.90
21857;DHT22;11093;50.862;4.328;2022-07-10T09:09:03;25.80;99.90
21857;DHT22;11093;50.862;4.328;2022-07-10T09:11:29;25.40;99.90
21857;DHT22;11093;50.862;4.328;2022-07-10T09:14:03;26.10;99.90
21857;DHT22;11093;50.862;4.328;2022-07-10T09:16:34;26.10;99.90
21857;DHT22;11093;50.862;4.328;2022-07-10T09:19:26;26.10;99.90
21857;DHT22;11093;50.862;4.328;2022-07-10T09:22:05;26.00;99.90
21857;DHT22;11093;50.862;4.328;2022-07-10T09:24:39;25.00;99.90
21857;DHT22;11093;50.862;4.328;2022-07-10T09:27:05;25.60;99.90
21857;DHT22;11093;50.862;4.328;2022-07-10T09:29:32;26.50;99.90
21857;DHT22;11093;50.862;4.328;2022-07-10T09:32:00;26.90;99.90
21857;DHT22;11093;50.862;4.328;2022-07-10T09:34:36;27.10;99.90
21857;DHT22;11093;50.862;4.328;2022-07-10T09:39:57;26.90;99.90
21857;DHT22;11093;50.862;4.328;2022-07-10T09:42:48;26.10;99.90
21857;DHT22;11093;50.862;4.328;2022-07-10T09:45:14;26.70;99.90
21857;DHT22;11093;50.862;4.328;2022-07-10T09:50:37;26.90;99.90
21857;DHT22;11093;50.862;4.328;2022-07-10T09:53:04;26.90;99.90
21857;DHT22;11093;50.862;4.328;2022-07-10T09:55:32;27.00;99.90
21857;DHT22;11093;50.862;4.328;2022-07-10T09:58:00;27.10;99.90
21857;DHT22;11093;50.862;4.328;2022-07-10T10:00:39;27.80;99.90
21857;DHT22;11093;50.862;4.328;2022-07-10T10:03:11;29.10;99.70
21857;DHT22;11093;50.862;4.328;2022-07-10T10:05:46;30.30;98.20
21857;DHT22;11093;50.862;4.328;2022-07-10T10:08:28;30.30;96.90
21857;DHT22;11093;50.862;4.328;2022-07-10T10:10:57;30.30;96.10
21857;DHT22;11093;50.862;4.328;2022-07-10T10:13:24;29.90;96.30
21857;DHT22;11093;50.862;4.328;2022-07-10T10:15:53;29.90;95.50
21857;DHT22;11093;50.862;4.328;2022-07-10T10:18:26;30.20;95.20
21857;DHT22;11093;50.862;4.328;2022-07-10T10:20:53;30.50;94.60
21857;DHT22;11093;50.862;4.328;2022-07-10T10:23:21;29.80;95.30
21857;DHT22;11093;50.862;4.328;2022-07-10T10:25:54;30.00;95.40
21857;DHT22;11093;50.862;4.328;2022-07-10T10:28:21;30.70;94.60
21857;DHT22;11093;50.862;4.328;2022-07-10T10:30:52;31.00;93.70
21857;DHT22;11093;50.862;4.328;2022-07-10T10:36:03;32.80;91.90
21857;DHT22;11093;50.862;4.328;2022-07-10T10:41:29;34.30;84.40
21857;DHT22;11093;50.862;4.328;2022-07-10T10:49:23;31.90;86.80
21857;DHT22;11093;50.862;4.328;2022-07-10T10:51:57;30.70;89.30
21857;DHT22;11093;50.862;4.328;2022-07-10T10:54:28;29.80;91.20
21857;DHT22;11093;50.862;4.328;2022-07-10T10:57:14;30.10;90.80
21857;DHT22;11093;50.862;4.328;2022-07-10T10:59:54;29.10;92.00
21857;DHT22;11093;50.862;4.328;2022-07-10T11:02:26;28.80;93.20
21857;DHT22;11093;50.862;4.328;2022-07-10T11:08:00;28.80;92.80
21857;DHT22;11093;50.862;4.328;2022-07-10T11:10:33;28.40;92.80
21857;DHT22;11093;50.862;4.328;2022-07-10T11:13:00;27.60;93.70
21857;DHT22;11093;50.862;4.328;2022-07-10T11:15:31;28.90;94.30
21857;DHT22;11093;50.862;4.328;2022-07-10T11:18:13;28.50;93.60
21857;DHT22;11093;50.862;4.328;2022-07-10T11:20:42;28.50;93.50
21857;DHT22;11093;50.862;4.328;2022-07-10T11:26:36;27.50;93.80
21857;DHT22;11093;50.862;4.328;2022-07-10T11:29:06;27.00;94.70
21857;DHT22;11093;50.862;4.328;2022-07-10T11:31:32;27.30;94.90
21857;DHT22;11093;50.862;4.328;2022-07-10T11:34:09;26.90;95.10
21857;DHT22;11093;50.862;4.328;2022-07-10T11:36:38;27.10;95.60
21857;DHT22;11093;50.862;4.328;2022-07-10T11:39:06;27.60;95.10
21857;DHT22;11093;50.862;4.328;2022-07-10T11:41:32;27.10;95.40
21857;DHT22;11093;50.862;4.328;2022-07-10T11:44:00;27.10;95.60
21857;DHT22;11093;50.862;4.328;2022-07-10T11:46:31;27.10;95.60
21857;DHT22;11093;50.862;4.328;2022-07-10T11:48:58;27.10;95.60
21857;DHT22;11093;50.862;4.328;2022-07-10T11:51:28;26.60;96.40
21857;DHT22;11093;50.862;4.328;2022-07-10T11:54:03;27.40;96.00
21857;DHT22;11093;50.862;4.328;2022-07-10T11:56:32;28.30;94.40
21857;DHT22;11093;50.862;4.328;2022-07-10T11:59:05;28.60;94.10
21857;DHT22;11093;50.862;4.328;2022-07-10T12:01:48;29.90;93.90
21857;DHT22;11093;50.862;4.328;2022-07-10T12:04:20;28.70;94.50
21857;DHT22;11093;50.862;4.328;2022-07-10T12:06:51;29.40;93.90
21857;DHT22;11093;50.862;4.328;2022-07-10T12:09:18;29.70;93.00
21857;DHT22;11093;50.862;4.328;2022-07-10T12:12:03;30.30;92.10
21857;DHT22;11093;50.862;4.328;2022-07-10T12:14:30;30.50;91.40
21857;DHT22;11093;50.862;4.328;2022-07-10T12:16:57;30.70;90.80
21857;DHT22;11093;50.862;4.328;2022-07-10T12:19:27;31.20;90.40
21857;DHT22;11093;50.862;4.328;2022-07-10T12:21:56;31.10;90.00
21857;DHT22;11093;50.862;4.328;2022-07-10T12:24:22;30.30;90.50
21857;DHT22;11093;50.862;4.328;2022-07-10T12:26:49;30.20;91.30
21857;DHT22;11093;50.862;4.328;2022-07-10T12:29:28;30.40;90.90
21857;DHT22;11093;50.862;4.328;2022-07-10T12:31:55;30.50;91.20
21857;DHT22;11093;50.862;4.328;2022-07-10T12:34:38;30.70;90.40
21857;DHT22;11093;50.862;4.328;2022-07-10T12:37:12;30.70;90.40
21857;DHT22;11093;50.862;4.328;2022-07-10T12:39:54;30.40;90.70
21857;DHT22;11093;50.862;4.328;2022-07-10T12:42:30;30.40;90.80
21857;DHT22;11093;50.862;4.328;2022-07-10T12:45:15;30.20;91.00
21857;DHT22;11093;50.862;4.328;2022-07-10T12:47:45;31.70;90.20
21857;DHT22;11093;50.862;4.328;2022-07-10T12:50:12;31.30;87.00
21857;DHT22;11093;50.862;4.328;2022-07-10T12:52:38;30.70;88.60
21857;DHT22;11093;50.862;4.328;2022-07-10T12:55:24;30.80;89.60
21857;DHT22;11093;50.862;4.328;2022-07-10T12:58:09;30.60;89.90
21857;DHT22;11093;50.862;4.328;2022-07-10T13:00:46;30.00;90.00
21857;DHT22;11093;50.862;4.328;2022-07-10T13:03:21;29.00;90.90
21857;DHT22;11093;50.862;4.328;2022-07-10T13:05:53;28.40;91.80
21857;DHT22;11093;50.862;4.328;2022-07-10T13:08:22;28.30;92.70
21857;DHT22;11093;50.862;4.328;2022-07-10T13:10:54;28.70;92.70
21857;DHT22;11093;50.862;4.328;2022-07-10T13:13:20;29.90;91.90
21857;DHT22;11093;50.862;4.328;2022-07-10T13:15:46;29.90;89.90
21857;DHT22;11093;50.862;4.328;2022-07-10T13:18:20;28.60;91.00
21857;DHT22;11093;50.862;4.328;2022-07-10T13:20:49;28.40;92.00
21857;DHT22;11093;50.862;4.328;2022-07-10T13:23:16;28.50;92.40
21857;DHT22;11093;50.862;4.328;2022-07-10T13:25:42;28.80;92.20
21857;DHT22;11093;50.862;4.328;2022-07-10T13:28:16;28.30;92.40
21857;DHT22;11093;50.862;4.328;2022-07-10T13:30:44;27.80;92.50
21857;DHT22;11093;50.862;4.328;2022-07-10T13:33:10;27.40;93.30
21857;DHT22;11093;50.862;4.328;2022-07-10T13:35:36;27.30;93.30
21857;DHT22;11093;50.862;4.328;2022-07-10T13:38:03;27.20;93.90
21857;DHT22;11093;50.862;4.328;2022-07-10T13:40:39;27.10;94.10
21857;DHT22;11093;50.862;4.328;2022-07-10T13:43:08;26.70;94.10
21857;DHT22;11093;50.862;4.328;2022-07-10T13:45:35;26.60;94.50
21857;DHT22;11093;50.862;4.328;2022-07-10T13:48:09;26.30;95.30
21857;DHT22;11093;50.862;4.328;2022-07-10T13:50:37;26.00;95.80
21857;DHT22;11093;50.862;4.328;2022-07-10T13:53:03;25.80;96.00
21857;DHT22;11093;50.862;4.328;2022-07-10T13:55:35;25.60;96.20
21857;DHT22;11093;50.862;4.328;2022-07-10T13:58:02;25.60;96.60
21857;DHT22;11093;50.862;4.328;2022-07-10T14:00:28;25.20;97.10
21857;DHT22;11093;50.862;4.328;2022-07-10T14:02:54;25.60;97.80
21857;DHT22;11093;50.862;4.328;2022-07-10T14:05:22;26.00;96.10
21857;DHT22;11093;50.862;4.328;2022-07-10T14:07:48;26.00;95.50
21857;DHT22;11093;50.862;4.328;2022-07-10T14:10:13;25.70;95.90
21857;DHT22;11093;50.862;4.328;2022-07-10T14:12:43;25.60;96.50
21857;DHT22;11093;50.862;4.328;2022-07-10T14:15:09;25.70;96.50
21857;DHT22;11093;50.862;4.328;2022-07-10T14:17:35;25.60;96.80
21857;DHT22;11093;50.862;4.328;2022-07-10T14:20:01;25.60;96.60
21857;DHT22;11093;50.862;4.328;2022-07-10T14:22:26;25.60;96.60
21857;DHT22;11093;50.862;4.328;2022-07-10T14:24:55;25.40;97.40
21857;DHT22;11093;50.862;4.328;2022-07-10T14:27:22;25.60;97.20
21857;DHT22;11093;50.862;4.328;2022-07-10T14:29:49;25.60;97.10
21857;DHT22;11093;50.862;4.328;2022-07-10T14:32:15;25.50;97.60
21857;DHT22;11093;50.862;4.328;2022-07-10T14:34:41;25.80;98.00
21857;DHT22;11093;50.862;4.328;2022-07-10T14:37:07;25.90;97.30
21857;DHT22;11093;50.862;4.328;2022-07-10T14:39:33;25.60;97.80
21857;DHT22;11093;50.862;4.328;2022-07-10T14:42:02;25.60;98.20
21857;DHT22;11093;50.862;4.328;2022-07-10T14:44:32;25.50;98.20
21857;DHT22;11093;50.862;4.328;2022-07-10T14:46:58;26.10;98.50
21857;DHT22;11093;50.862;4.328;2022-07-10T14:49:24;26.80;97.30
21857;DHT22;11093;50.862;4.328;2022-07-10T14:51:52;27.10;97.90
21857;DHT22;11093;50.862;4.328;2022-07-10T14:54:18;27.00;96.40
21857;DHT22;11093;50.862;4.328;2022-07-10T14:56:47;26.90;95.70
21857;DHT22;11093;50.862;4.328;2022-07-10T14:59:13;26.50;96.70
21857;DHT22;11093;50.862;4.328;2022-07-10T15:01:39;26.20;96.90
21857;DHT22;11093;50.862;4.328;2022-07-10T15:04:05;25.90;97.70
21857;DHT22;11093;50.862;4.328;2022-07-10T15:06:30;25.60;97.70
21857;DHT22;11093;50.862;4.328;2022-07-10T15:08:57;25.30;98.20
21857;DHT22;11093;50.862;4.328;2022-07-10T15:11:23;25.40;98.10
21857;DHT22;11093;50.862;4.328;2022-07-10T15:13:52;25.40;98.60
21857;DHT22;11093;50.862;4.328;2022-07-10T15:16:27;25.70;98.90
21857;DHT22;11093;50.862;4.328;2022-07-10T15:18:53;26.20;98.50
21857;DHT22;11093;50.862;4.328;2022-07-10T15:21:19;26.40;96.70
21857;DHT22;11093;50.862;4.328;2022-07-10T15:23:52;26.10;97.40
21857;DHT22;11093;50.862;4.328;2022-07-10T15:26:18;25.90;97.90
21857;DHT22;11093;50.862;4.328;2022-07-10T15:28:44;26.10;97.90
21857;DHT22;11093;50.862;4.328;2022-07-10T15:31:10;26.00;97.30
21857;DHT22;11093;50.862;4.328;2022-07-10T15:33:38;26.00;97.00
21857;DHT22;11093;50.862;4.328;2022-07-10T15:36:10;25.80;97.40
21857;DHT22;11093;50.862;4.328;2022-07-10T15:38:36;25.40;98.10
21857;DHT22;11093;50.862;4.328;2022-07-10T15:41:02;25.10;98.60
21857;DHT22;11093;50.862;4.328;2022-07-10T15:43:28;25.40;98.70
21857;DHT22;11093;50.862;4.328;2022-07-10T15:45:54;25.60;98.60
21857;DHT22;11093;50.862;4.328;2022-07-10T15:48:20;25.60;98.20
21857;DHT22;11093;50.862;4.328;2022-07-10T15:50:52;26.30;98.30
21857;DHT22;11093;50.862;4.328;2022-07-10T15:53:19;25.80;97.90
21857;DHT22;11093;50.862;4.328;2022-07-10T15:55:45;25.50;98.20
21857;DHT22;11093;50.862;4.328;2022-07-10T15:58:11;25.60;98.60